| time (UTC) | temp F | wind direction | speed MPH | gust MPH | rain 1hr in | rain 24hr in | rain mn in | humidity % | barometer mb |
| 20260903000038 | 65 | 209 | 0.0 | 6.0 | 0.00 | 0.42 | 0.17 | 54 | 1011.7 |
| 20260902234524 | 65 | 109 | 1.0 | 4.0 | 0.00 | 0.42 | 0.17 | 52 | 1011.7 |
| 20260902233015 | 66 | 293 | 2.0 | 5.0 | 0.00 | 0.42 | 0.17 | 53 | 1011.9 |
| 20260902231537 | 66 | 241 | 4.0 | 9.0 | 0.00 | 0.42 | 0.17 | 55 | 1012.1 |
| 20260902230032 | 65 | 227 | 2.0 | 7.0 | 0.00 | 0.43 | 0.17 | 59 | 1012.3 |
| 20260902224544 | 63 | 235 | 3.0 | 4.0 | 0.00 | 0.49 | 0.17 | 60 | 1012.7 |
| 20260902223033 | 62 | 117 | 1.0 | 4.0 | 0.00 | 0.49 | 0.17 | 62 | 1013.0 |
| 20260902221537 | 63 | 232 | 4.0 | 8.0 | 0.00 | 0.49 | 0.17 | 58 | 1013.3 |
| 20260902220047 | 63 | 246 | 2.0 | 9.0 | 0.00 | 0.49 | 0.17 | 55 | 1013.4 |
| 20260902214525 | 63 | 151 | 1.0 | 10.0 | 0.00 | 0.49 | 0.17 | 56 | 1013.7 |
| 20260902213018 | 61 | 232 | 4.0 | 6.0 | 0.00 | 0.49 | 0.17 | 64 | 1013.6 |
| 20260902211532 | 58 | 122 | 1.0 | 7.0 | 0.00 | 0.49 | 0.17 | 71 | 1013.8 |
| 20260902210031 | 56 | 125 | 6.0 | 11.0 | 0.00 | 0.49 | 0.17 | 72 | 1014.0 |
| 20260902204535 | 55 | 117 | 7.0 | 9.0 | 0.00 | 0.49 | 0.17 | 78 | 1013.9 |
| 20260902203031 | 53 | 115 | 8.0 | 11.0 | 0.01 | 0.49 | 0.17 | 81 | 1013.4 |
| 20260902201542 | 52 | 102 | 3.0 | 7.0 | 0.04 | 0.49 | 0.17 | 82 | 1013.7 |
| 20260902200030 | 51 | 223 | 3.0 | 6.0 | 0.08 | 0.49 | 0.17 | 83 | 1014.0 |
| 20260902194532 | 52 | 118 | 9.0 | 11.0 | 0.15 | 0.49 | 0.17 | 79 | 1013.6 |
| 20260902193038 | 52 | 342 | 5.0 | 17.0 | 0.16 | 0.48 | 0.16 | 79 | 1013.3 |
| 20260902191520 | 51 | 144 | 9.0 | 15.0 | 0.13 | 0.45 | 0.13 | 81 | 1014.8 |
| 20260902190016 | 53 | 138 | 12.0 | 18.0 | 0.09 | 0.41 | 0.09 | 78 | 1014.9 |
| 20260902184520 | 56 | 227 | 2.0 | 17.0 | 0.02 | 0.34 | 0.02 | 71 | 1014.5 |
| 20260902183011 | 60 | 233 | 16.0 | 23.0 | 0.00 | 0.32 | 0.00 | 60 | 1013.5 |
| 20260902181509 | 62 | 226 | 8.0 | 15.0 | 0.00 | 0.32 | 0.00 | 59 | 1012.4 |
| 20260902180029 | 63 | 268 | 13.0 | 23.0 | 0.00 | 0.32 | 0.00 | 58 | 1011.9 |
| 20260902174528 | 65 | 232 | 2.0 | 13.0 | 0.00 | 0.32 | 0.00 | 58 | 1011.3 |
| 20260902173027 | 65 | 257 | 2.0 | 7.0 | 0.00 | 0.32 | 0.00 | 62 | 1011.0 |
| 20260902171524 | 64 | 211 | 1.0 | 5.0 | 0.00 | 0.32 | 0.00 | 61 | 1010.6 |
| 20260902170022 | 65 | 247 | 5.0 | 6.0 | 0.00 | 0.32 | 0.00 | 62 | 1010.1 |
| 20260902164518 | 64 | 146 | 1.0 | 8.0 | 0.00 | 0.32 | 0.00 | 63 | 1009.8 |
| 20260902163013 | 63 | 126 | 7.0 | 12.0 | 0.00 | 0.32 | 0.00 | 64 | 1009.9 |
| 20260902161512 | 61 | 124 | 4.0 | 9.0 | 0.00 | 0.32 | 0.00 | 66 | 1010.1 |
| 20260902160032 | 60 | 242 | 2.0 | 8.0 | 0.00 | 0.32 | 0.00 | 70 | 1010.0 |
| 20260902154532 | 60 | 224 | 3.0 | 7.0 | 0.00 | 0.32 | 0.00 | 70 | 1009.9 |
| 20260902153046 | 59 | 232 | 1.0 | 4.0 | 0.00 | 0.32 | 0.00 | 73 | 1009.8 |
| 20260902151529 | 58 | 233 | 3.0 | 4.0 | 0.00 | 0.32 | 0.00 | 75 | 1009.8 |
| 20260902150028 | 57 | 201 | 0.0 | 2.0 | 0.00 | 0.32 | 0.00 | 75 | 1009.8 |
| 20260902144524 | 57 | 231 | 2.0 | 5.0 | 0.00 | 0.32 | 0.00 | 75 | 1009.9 |
| 20260902143019 | 55 | 241 | 1.0 | 3.0 | 0.00 | 0.32 | 0.00 | 78 | 1009.9 |
| 20260902141515 | 55 | 211 | 4.0 | 8.0 | 0.00 | 0.32 | 0.00 | 78 | 1009.8 |
| 20260902140030 | 54 | 170 | 3.0 | 8.0 | 0.00 | 0.32 | 0.00 | 79 | 1009.6 |
| 20260902134538 | 54 | 214 | 3.0 | 9.0 | 0.00 | 0.32 | 0.00 | 79 | 1010.0 |
| 20260902133031 | 54 | 98 | 1.0 | 3.0 | 0.00 | 0.32 | 0.00 | 79 | 1010.0 |
| 20260902131539 | 54 | 202 | 2.0 | 5.0 | 0.00 | 0.32 | 0.00 | 81 | 1010.1 |
| 20260902130029 | 54 | 85 | 1.0 | 4.0 | 0.00 | 0.32 | 0.00 | 80 | 1010.2 |
| 20260902124529 | 55 | 132 | 4.0 | 15.0 | 0.00 | 0.32 | 0.00 | 79 | 1010.2 |
| 20260902123029 | 55 | 242 | 9.0 | 16.0 | 0.00 | 0.32 | 0.00 | 78 | 1010.3 |
| 20260902121517 | 55 | 218 | 9.0 | 15.0 | 0.00 | 0.32 | 0.00 | 78 | 1010.4 |
| 20260902120033 | 55 | 182 | 6.0 | 13.0 | 0.00 | 0.32 | 0.00 | 77 | 1010.7 |
| 20260902114532 | 56 | 319 | 6.0 | 15.0 | 0.00 | 0.32 | 0.00 | 77 | 1010.8 |
| 20260902113036 | 57 | 225 | 10.0 | 18.0 | 0.00 | 0.32 | 0.00 | 74 | 1011.0 |
| 20260902111530 | 58 | 230 | 14.0 | 18.0 | 0.00 | 0.32 | 0.00 | 71 | 1011.1 |
| 20260902110040 | 61 | 119 | 9.0 | 19.0 | 0.00 | 0.32 | 0.00 | 63 | 1011.0 |
| 20260902104526 | 62 | 84 | 15.0 | 25.0 | 0.00 | 0.32 | 0.00 | 60 | 1010.4 |
| 20260902103011 | 60 | 99 | 15.0 | 20.0 | 0.00 | 0.32 | 0.00 | 65 | 1011.7 |
| 20260902101510 | 61 | 192 | 8.0 | 18.0 | 0.00 | 0.32 | 0.00 | 65 | 1012.5 |
| 20260902100014 | 57 | 215 | 1.0 | 7.0 | 0.00 | 0.32 | 0.00 | 76 | 1013.0 |
| 20260902094513 | 56 | 166 | 1.0 | 7.0 | 0.00 | 0.32 | 0.00 | 81 | 1013.3 |
| 20260902093020 | 55 | 230 | 1.0 | 6.0 | 0.00 | 0.32 | 0.00 | 85 | 1013.3 |
| 20260902091511 | 55 | 338 | 0.0 | 6.0 | 0.00 | 0.32 | 0.00 | 85 | 1013.4 |
| 20260902090008 | 55 | 149 | 3.0 | 7.0 | 0.00 | 0.32 | 0.00 | 85 | 1013.3 |
| 20260902084520 | 55 | 229 | 2.0 | 4.0 | 0.00 | 0.32 | 0.00 | 85 | 1013.3 |
| 20260902083017 | 55 | 130 | 0.0 | 2.0 | 0.00 | 0.32 | 0.00 | 85 | 1013.4 |
| 20260902081515 | 55 | 114 | 0.0 | 3.0 | 0.00 | 0.32 | 0.00 | 86 | 1013.4 |
| 20260902080016 | 55 | 92 | 0.0 | 2.0 | 0.00 | 0.32 | 0.00 | 87 | 1013.5 |
| 20260902074516 | 55 | 109 | 3.0 | 4.0 | 0.00 | 0.32 | 0.00 | 87 | 1013.5 |
| 20260902073019 | 56 | 233 | 1.0 | 7.0 | 0.00 | 0.32 | 0.00 | 87 | 1013.6 |
| 20260902071515 | 56 | 76 | 2.0 | 3.0 | 0.00 | 0.32 | 0.00 | 85 | 1013.3 |
| 20260902070021 | 56 | 231 | 3.0 | 9.0 | 0.00 | 0.32 | 0.00 | 85 | 1012.9 |
| 20260902064522 | 56 | 242 | 6.0 | 8.0 | 0.00 | 0.32 | 0.00 | 86 | 1013.3 |
| 20260902063018 | 56 | 238 | 5.0 | 8.0 | 0.00 | 0.32 | 0.00 | 85 | 1013.8 |
| 20260902061540 | 57 | 240 | 1.0 | 4.0 | 0.00 | 0.32 | 0.00 | 83 | 1014.1 |
| 20260902060023 | 58 | 163 | 2.0 | 14.0 | 0.00 | 0.32 | 0.00 | 79 | 1014.6 |
| 20260902054521 | 57 | 123 | 8.0 | 14.0 | 0.00 | 0.32 | 0.32 | 83 | 1015.0 |
| 20260902053028 | 56 | 140 | 1.0 | 8.0 | 0.00 | 0.32 | 0.32 | 89 | 1015.4 |
| 20260902051517 | 56 | 238 | 1.0 | 7.0 | 0.00 | 0.32 | 0.32 | 90 | 1015.2 |
| 20260902050028 | 55 | 141 | 0.0 | 4.0 | 0.00 | 0.32 | 0.32 | 91 | 1015.2 |
| 20260902044527 | 55 | 123 | 1.0 | 2.0 | 0.00 | 0.32 | 0.32 | 91 | 1015.0 |
| 20260902043025 | 55 | 246 | 1.0 | 11.0 | 0.01 | 0.32 | 0.32 | 91 | 1014.7 |
| 20260902041528 | 56 | 263 | 6.0 | 11.0 | 0.03 | 0.32 | 0.32 | 90 | 1014.5 |
| 20260902040027 | 56 | 69 | 5.0 | 9.0 | 0.06 | 0.32 | 0.32 | 89 | 1015.1 |
| 20260902034526 | 57 | 148 | 2.0 | 9.0 | 0.09 | 0.32 | 0.32 | 87 | 1015.6 |
| 20260902033027 | 56 | 184 | 0.0 | 2.0 | 0.10 | 0.31 | 0.31 | 88 | 1015.8 |
| 20260902031521 | 57 | 252 | 3.0 | 7.0 | 0.12 | 0.29 | 0.29 | 87 | 1015.5 |
| 20260902030031 | 57 | 233 | 7.0 | 11.0 | 0.10 | 0.26 | 0.26 | 86 | 1015.7 |
| 20260902024532 | 57 | 218 | 2.0 | 9.0 | 0.08 | 0.23 | 0.23 | 85 | 1015.9 |
| 20260902023029 | 58 | 123 | 9.0 | 14.0 | 0.07 | 0.21 | 0.21 | 81 | 1015.8 |
| 20260902021531 | 58 | 85 | 4.0 | 12.0 | 0.06 | 0.17 | 0.17 | 84 | 1016.4 |
| 20260902020029 | 58 | 161 | 3.0 | 7.0 | 0.06 | 0.16 | 0.16 | 82 | 1016.0 |
| 20260902014528 | 59 | 111 | 8.0 | 13.0 | 0.05 | 0.15 | 0.15 | 81 | 1015.7 |
| 20260902013004 | 60 | 85 | 9.0 | 11.0 | 0.04 | 0.14 | 0.14 | 72 | 1015.8 |
| 20260902011507 | 63 | 152 | 1.0 | 9.0 | 0.01 | 0.11 | 0.11 | 65 | 1016.3 |
| 20260902010022 | 64 | 98 | 7.0 | 10.0 | 0.03 | 0.10 | 0.10 | 63 | 1015.9 |
| 20260902004519 | 64 | 319 | 3.0 | 9.0 | 0.03 | 0.10 | 0.10 | 61 | 1015.3 |
| 20260902003017 | 63 | 248 | 8.0 | 17.0 | 0.03 | 0.10 | 0.10 | 67 | 1015.1 |
| 20260902001513 | 64 | 130 | 5.0 | 19.0 | 0.03 | 0.10 | 0.10 | 67 | 1014.5 |